Time,TemperatureF,DewpointF,PressureIn,WindDirection,WindDirectionDegrees,WindSpeedMPH,WindSpeedGustMPH,Humidity,HourlyPrecipIn,Conditions,Clouds,dailyrainin,SoftwareType,DateUTC
2013-01-21 00:02:00,53.0,22.0,-100.00,SSW,195,0.0,0.0,29,0.00,,,0.00,,2013-01-21 07:02:00,
2013-01-21 00:11:00,53.0,22.0,-100.00,SSW,195,0.0,0.0,29,0.00,,,0.00,,2013-01-21 07:11:00,
2013-01-21 00:22:00,52.0,21.0,-100.00,North,350,0.0,0.0,29,0.00,,,0.00,,2013-01-21 07:22:00,
2013-01-21 00:32:00,51.0,21.0,-100.00,North,350,0.0,0.0,30,0.00,,,0.00,,2013-01-21 07:32:00,
2013-01-21 00:42:00,51.0,21.0,-100.00,North,350,0.0,0.0,30,0.00,,,0.00,,2013-01-21 07:42:00,
2013-01-21 00:52:00,51.0,21.0,-100.00,North,350,0.0,0.0,31,0.00,,,0.00,,2013-01-21 07:52:00,
2013-01-21 01:02:00,51.0,21.0,-100.00,North,350,0.0,0.0,31,0.00,,,0.00,,2013-01-21 08:02:00,
2013-01-21 01:12:00,51.0,21.0,-100.00,North,350,0.0,0.0,31,0.00,,,0.00,,2013-01-21 08:12:00,
2013-01-21 01:22:00,52.0,21.0,-100.00,NW,323,0.0,0.0,29,0.00,,,0.00,,2013-01-21 08:22:00,
2013-01-21 01:32:00,53.0,21.0,-100.00,NW,314,0.0,0.0,28,0.00,,,0.00,,2013-01-21 08:32:00,
2013-01-21 01:42:00,53.0,21.0,-100.00,NW,314,0.0,0.0,28,0.00,,,0.00,,2013-01-21 08:42:00,
2013-01-21 01:53:00,53.0,21.0,-100.00,NW,314,0.0,0.0,28,0.00,,,0.00,,2013-01-21 08:53:00,
2013-01-21 02:02:00,52.0,21.0,-100.00,NW,314,0.0,0.0,29,0.00,,,0.00,,2013-01-21 09:02:00,
2013-01-21 02:11:00,52.0,21.0,-100.00,NW,314,0.0,0.0,29,0.00,,,0.00,,2013-01-21 09:11:00,
2013-01-21 02:22:00,50.0,19.0,-100.00,NW,314,0.0,0.0,29,0.00,,,0.00,,2013-01-21 09:22:00,
2013-01-21 02:32:00,51.0,19.0,-100.00,NW,314,0.0,0.0,28,0.00,,,0.00,,2013-01-21 09:32:00,
2013-01-21 02:42:00,51.0,19.0,-100.00,NW,314,0.0,0.0,28,0.00,,,0.00,,2013-01-21 09:42:00,
2013-01-21 02:53:00,52.0,20.0,-100.00,North,354,0.0,0.0,28,0.00,,,0.00,,2013-01-21 09:53:00,
2013-01-21 03:01:00,52.0,20.0,-100.00,NNW,335,0.0,0.0,28,0.00,,,0.00,,2013-01-21 10:01:00,
2013-01-21 03:11:00,52.0,20.0,-100.00,NNW,335,0.0,0.0,28,0.00,,,0.00,,2013-01-21 10:11:00,
2013-01-21 03:22:00,51.0,19.0,-100.00,NNW,330,0.0,0.0,28,0.00,,,0.00,,2013-01-21 10:22:00,
2013-01-21 03:32:00,52.0,19.0,-100.00,NNW,343,1.0,2.0,27,0.00,,,0.00,,2013-01-21 10:32:00,
2013-01-21 03:42:00,52.0,19.0,-100.00,NNW,343,1.0,2.0,27,0.00,,,0.00,,2013-01-21 10:42:00,
2013-01-21 03:52:00,53.0,18.0,-100.00,NNW,333,3.0,3.0,25,0.00,,,0.00,,2013-01-21 10:52:00,
2013-01-21 04:02:00,53.0,18.0,-100.00,NNW,329,0.0,0.0,25,0.00,,,0.00,,2013-01-21 11:02:00,
2013-01-21 04:12:00,53.0,18.0,-100.00,NNW,329,0.0,0.0,25,0.00,,,0.00,,2013-01-21 11:12:00,
2013-01-21 04:22:00,52.0,17.0,-100.00,NNW,329,0.0,0.0,25,0.00,,,0.00,,2013-01-21 11:22:00,
2013-01-21 04:32:00,50.0,17.0,-100.00,NNW,329,0.0,0.0,27,0.00,,,0.00,,2013-01-21 11:32:00,
2013-01-21 04:42:00,50.0,17.0,-100.00,NNW,329,0.0,0.0,27,0.00,,,0.00,,2013-01-21 11:42:00,
2013-01-21 04:53:00,48.0,17.0,-100.00,SW,229,0.0,0.0,29,0.00,,,0.00,,2013-01-21 11:53:00,
2013-01-21 05:02:00,48.0,17.0,-100.00,SSW,198,0.0,0.0,29,0.00,,,0.00,,2013-01-21 12:02:00,
2013-01-21 05:11:00,48.0,17.0,-100.00,SSW,198,0.0,0.0,29,0.00,,,0.00,,2013-01-21 12:11:00,
2013-01-21 05:22:00,49.0,18.0,-100.00,NNW,330,3.0,3.0,29,0.00,,,0.00,,2013-01-21 12:22:00,
2013-01-21 05:32:00,53.0,18.0,-100.00,NNW,328,1.0,3.0,25,0.00,,,0.00,,2013-01-21 12:32:00,
2013-01-21 05:42:00,53.0,18.0,-100.00,NNW,328,1.0,3.0,25,0.00,,,0.00,,2013-01-21 12:42:00,
2013-01-21 05:52:00,52.0,18.0,-100.00,NNW,335,1.0,0.0,26,0.00,,,0.00,,2013-01-21 12:52:00,
2013-01-21 06:02:00,52.0,17.0,-100.00,NW,315,4.0,4.0,25,0.00,,,0.00,,2013-01-21 13:02:00,
2013-01-21 06:12:00,52.0,17.0,-100.00,NW,315,4.0,4.0,25,0.00,,,0.00,,2013-01-21 13:12:00,
2013-01-21 06:22:00,52.0,17.0,-100.00,NNW,329,3.0,4.0,25,0.00,,,0.00,,2013-01-21 13:22:00,
2013-01-21 06:32:00,51.0,17.0,-100.00,NW,314,2.0,2.0,26,0.00,,,0.00,,2013-01-21 13:32:00,
2013-01-21 06:42:00,51.0,17.0,-100.00,NW,314,2.0,2.0,26,0.00,,,0.00,,2013-01-21 13:42:00,
2013-01-21 06:53:00,51.0,16.0,-100.00,West,259,0.0,0.0,25,0.00,,,0.00,,2013-01-21 13:53:00,
2013-01-21 07:02:00,53.0,17.0,-100.00,NW,326,0.0,0.0,24,0.00,,,0.00,,2013-01-21 14:02:00,
2013-01-21 07:12:00,53.0,17.0,-100.00,NW,326,0.0,0.0,24,0.00,,,0.00,,2013-01-21 14:12:00,
2013-01-21 07:22:00,52.0,17.0,-100.00,NW,314,0.0,0.0,25,0.00,,,0.00,,2013-01-21 14:22:00,
2013-01-21 07:32:00,52.0,17.0,-100.00,North,349,1.0,5.0,25,0.00,,,0.00,,2013-01-21 14:32:00,
2013-01-21 07:42:00,52.0,17.0,-100.00,North,349,1.0,5.0,25,0.00,,,0.00,,2013-01-21 14:42:00,
2013-01-21 07:53:00,57.0,16.0,-100.00,NW,325,1.0,1.0,20,0.00,,,0.00,,2013-01-21 14:53:00,
2013-01-21 08:02:00,58.0,16.0,-100.00,NW,314,4.0,4.0,19,0.00,,,0.00,,2013-01-21 15:02:00,
2013-01-21 08:12:00,58.0,16.0,-100.00,NW,314,4.0,4.0,19,0.00,,,0.00,,2013-01-21 15:12:00,
2013-01-21 08:22:00,58.0,16.0,-100.00,NNW,342,3.0,3.0,19,0.00,,,0.00,,2013-01-21 15:22:00,
2013-01-21 08:32:00,59.0,16.0,-100.00,NW,319,10.0,10.0,18,0.00,,,0.00,,2013-01-21 15:32:00,
2013-01-21 08:42:00,59.0,16.0,-100.00,NW,319,10.0,10.0,18,0.00,,,0.00,,2013-01-21 15:42:00,
2013-01-21 08:53:00,60.0,15.0,-100.00,NNW,345,6.0,6.0,17,0.00,,,0.00,,2013-01-21 15:53:00,
2013-01-21 09:02:00,61.0,16.0,-100.00,NW,314,7.0,9.0,17,0.00,,,0.00,,2013-01-21 16:02:00,
2013-01-21 09:22:00,62.0,15.0,-100.00,NW,322,9.0,9.0,16,0.00,,,0.00,,2013-01-21 16:22:00,
2013-01-21 09:32:00,62.0,15.0,-100.00,NW,322,8.0,8.0,16,0.00,,,0.00,,2013-01-21 16:32:00,
2013-01-21 09:42:00,62.0,15.0,-100.00,NW,322,8.0,8.0,16,0.00,,,0.00,,2013-01-21 16:42:00,
2013-01-21 09:53:00,63.0,16.0,-100.00,NW,312,8.0,8.0,16,0.00,,,0.00,,2013-01-21 16:53:00,
2013-01-21 10:02:00,65.0,16.0,-100.00,NNW,332,6.0,6.0,15,0.00,,,0.00,,2013-01-21 17:02:00,
2013-01-21 10:12:00,65.0,16.0,-100.00,NNW,332,6.0,6.0,15,0.00,,,0.00,,2013-01-21 17:12:00,
2013-01-21 10:22:00,66.0,15.0,-100.00,NW,316,8.0,8.0,14,0.00,,,0.00,,2013-01-21 17:22:00,
2013-01-21 10:32:00,66.0,14.0,-100.00,NW,305,10.0,10.0,13,0.00,,,0.00,,2013-01-21 17:32:00,
2013-01-21 10:42:00,66.0,14.0,-100.00,NW,305,10.0,10.0,13,0.00,,,0.00,,2013-01-21 17:42:00,
2013-01-21 10:53:00,67.0,15.0,-100.00,NW,308,7.0,7.0,13,0.00,,,0.00,,2013-01-21 17:53:00,
2013-01-21 11:02:00,68.0,14.0,-100.00,NW,316,6.0,7.0,12,0.00,,,0.00,,2013-01-21 18:02:00,
2013-01-21 11:11:00,68.0,14.0,-100.00,NW,316,6.0,7.0,12,0.00,,,0.00,,2013-01-21 18:11:00,
2013-01-21 11:22:00,68.0,14.0,-100.00,NW,314,7.0,7.0,12,0.00,,,0.00,,2013-01-21 18:22:00,
2013-01-21 11:32:00,68.0,14.0,-100.00,NW,309,8.0,10.0,12,0.00,,,0.00,,2013-01-21 18:32:00,
2013-01-21 11:42:00,68.0,14.0,-100.00,NW,309,8.0,10.0,12,0.00,,,0.00,,2013-01-21 18:42:00,
2013-01-21 11:52:00,69.0,14.0,-100.00,NNW,335,6.0,6.0,12,0.00,,,0.00,,2013-01-21 18:52:00,
2013-01-21 12:02:00,71.0,14.0,-100.00,NW,322,8.0,8.0,11,0.00,,,0.00,,2013-01-21 19:02:00,
2013-01-21 12:12:00,72.0,12.0,-100.00,NNW,335,8.0,10.0,10,0.00,,,0.00,,2013-01-21 19:12:00,
2013-01-21 12:22:00,72.0,12.0,-100.00,NNW,335,8.0,10.0,10,0.00,,,0.00,,2013-01-21 19:22:00,
2013-01-21 12:32:00,72.0,12.0,-100.00,NW,312,10.0,10.0,10,0.00,,,0.00,,2013-01-21 19:32:00,
2013-01-21 12:42:00,72.0,12.0,-100.00,NW,312,10.0,10.0,10,0.00,,,0.00,,2013-01-21 19:42:00,
2013-01-21 12:53:00,73.0,13.0,-100.00,NW,326,10.0,10.0,10,0.00,,,0.00,,2013-01-21 19:53:00,
2013-01-21 13:02:00,73.0,11.0,-100.00,WNW,297,8.0,8.0,9,0.00,,,0.00,,2013-01-21 20:02:00,
2013-01-21 13:12:00,73.0,11.0,-100.00,WNW,297,8.0,8.0,9,0.00,,,0.00,,2013-01-21 20:12:00,
2013-01-21 13:22:00,73.0,11.0,-100.00,NW,316,8.0,8.0,9,0.00,,,0.00,,2013-01-21 20:22:00,
2013-01-21 13:32:00,74.0,12.0,-100.00,NNW,339,3.0,5.0,9,0.00,,,0.00,,2013-01-21 20:32:00,
2013-01-21 13:42:00,74.0,12.0,-100.00,NNW,339,3.0,5.0,9,0.00,,,0.00,,2013-01-21 20:42:00,
2013-01-21 13:53:00,75.0,10.0,-100.00,NW,316,8.0,8.0,8,0.00,,,0.00,,2013-01-21 20:53:00,
2013-01-21 14:02:00,76.0,10.0,-100.00,West,259,6.0,6.0,8,0.00,,,0.00,,2013-01-21 21:02:00,
2013-01-21 14:12:00,76.0,10.0,-100.00,West,259,6.0,6.0,8,0.00,,,0.00,,2013-01-21 21:12:00,
2013-01-21 14:22:00,76.0,10.0,-100.00,SW,229,7.0,7.0,8,0.00,,,0.00,,2013-01-21 21:22:00,
2013-01-21 14:32:00,76.0,10.0,-100.00,NW,319,6.0,11.0,8,0.00,,,0.00,,2013-01-21 21:32:00,
2013-01-21 14:42:00,76.0,10.0,-100.00,NW,319,6.0,11.0,8,0.00,,,0.00,,2013-01-21 21:42:00,
2013-01-21 14:53:00,76.0,10.0,-100.00,NNW,332,7.0,7.0,8,0.00,,,0.00,,2013-01-21 21:53:00,
2013-01-21 15:02:00,77.0,11.0,-100.00,WNW,283,6.0,6.0,8,0.00,,,0.00,,2013-01-21 22:02:00,
2013-01-21 15:11:00,77.0,11.0,-100.00,WNW,283,6.0,6.0,8,0.00,,,0.00,,2013-01-21 22:11:00,
2013-01-21 15:22:00,76.0,10.0,-100.00,WNW,291,7.0,7.0,8,0.00,,,0.00,,2013-01-21 22:22:00,
2013-01-21 15:32:00,77.0,11.0,-100.00,NW,321,9.0,9.0,8,0.00,,,0.00,,2013-01-21 22:32:00,
2013-01-21 15:43:00,77.0,11.0,-100.00,NW,321,9.0,9.0,8,0.00,,,0.00,,2013-01-21 22:43:00,
2013-01-21 15:52:00,77.0,11.0,-100.00,NNW,340,7.0,9.0,8,0.00,,,0.00,,2013-01-21 22:52:00,
2013-01-21 16:02:00,76.0,10.0,-100.00,WSW,243,5.0,7.0,8,0.00,,,0.00,,2013-01-21 23:02:00,
2013-01-21 16:12:00,76.0,10.0,-100.00,WSW,243,5.0,7.0,8,0.00,,,0.00,,2013-01-21 23:12:00,
2013-01-21 16:22:00,76.0,10.0,-100.00,NW,314,6.0,6.0,8,0.00,,,0.00,,2013-01-21 23:22:00,
2013-01-21 16:32:00,76.0,10.0,-100.00,WNW,288,7.0,7.0,8,0.00,,,0.00,,2013-01-21 23:32:00,
2013-01-21 16:42:00,76.0,10.0,-100.00,WNW,288,7.0,7.0,8,0.00,,,0.00,,2013-01-21 23:42:00,
2013-01-21 16:52:00,75.0,10.0,-100.00,NW,308,5.0,5.0,8,0.00,,,0.00,,2013-01-21 23:52:00,
2013-01-21 17:02:00,75.0,10.0,-100.00,West,260,7.0,9.0,8,0.00,,,0.00,,2013-01-22 00:02:00,
2013-01-21 17:11:00,75.0,10.0,-100.00,West,260,7.0,9.0,8,0.00,,,0.00,,2013-01-22 00:11:00,
2013-01-21 17:22:00,74.0,12.0,-100.00,NW,316,7.0,7.0,9,0.00,,,0.00,,2013-01-22 00:22:00,
2013-01-21 17:32:00,73.0,11.0,-100.00,WNW,291,7.0,9.0,9,0.00,,,0.00,,2013-01-22 00:32:00,
2013-01-21 17:42:00,73.0,11.0,-100.00,WNW,291,7.0,9.0,9,0.00,,,0.00,,2013-01-22 00:42:00,
2013-01-21 17:52:00,72.0,12.0,-100.00,West,267,4.0,4.0,10,0.00,,,0.00,,2013-01-22 00:52:00,
2013-01-21 18:02:00,71.0,12.0,-100.00,WSW,238,5.0,5.0,10,0.00,,,0.00,,2013-01-22 01:02:00,
2013-01-21 18:12:00,71.0,12.0,-100.00,WSW,238,5.0,5.0,10,0.00,,,0.00,,2013-01-22 01:12:00,
2013-01-21 18:22:00,70.0,13.0,-100.00,NW,322,5.0,5.0,11,0.00,,,0.00,,2013-01-22 01:22:00,
2013-01-21 18:32:00,69.0,12.0,-100.00,WNW,300,1.0,1.0,11,0.00,,,0.00,,2013-01-22 01:32:00,
2013-01-21 18:42:00,69.0,12.0,-100.00,WNW,300,1.0,1.0,11,0.00,,,0.00,,2013-01-22 01:42:00,
2013-01-21 18:52:00,67.0,13.0,-100.00,WNW,297,0.0,0.0,12,0.00,,,0.00,,2013-01-22 01:52:00,
2013-01-21 19:02:00,66.0,15.0,-100.00,NW,323,0.0,0.0,14,0.00,,,0.00,,2013-01-22 02:02:00,
2013-01-21 19:12:00,66.0,15.0,-100.00,NW,323,0.0,0.0,14,0.00,,,0.00,,2013-01-22 02:12:00,
2013-01-21 19:22:00,64.0,15.0,-100.00,West,263,0.0,1.0,15,0.00,,,0.00,,2013-01-22 02:22:00,
2013-01-21 19:32:00,64.0,15.0,-100.00,West,270,0.0,1.0,15,0.00,,,0.00,,2013-01-22 02:32:00,
2013-01-21 19:42:00,64.0,15.0,-100.00,West,270,0.0,1.0,15,0.00,,,0.00,,2013-01-22 02:42:00,
2013-01-21 19:53:00,64.0,15.0,-100.00,NNW,335,2.0,3.0,15,0.00,,,0.00,,2013-01-22 02:53:00,
2013-01-21 20:02:00,64.0,15.0,-100.00,NW,318,0.0,0.0,15,0.00,,,0.00,,2013-01-22 03:02:00,
2013-01-21 20:12:00,64.0,15.0,-100.00,NW,318,0.0,0.0,15,0.00,,,0.00,,2013-01-22 03:12:00,
2013-01-21 20:22:00,62.0,15.0,-100.00,NW,315,0.0,0.0,16,0.00,,,0.00,,2013-01-22 03:22:00,
2013-01-21 20:32:00,61.0,14.0,-100.00,NW,315,0.0,0.0,16,0.00,,,0.00,,2013-01-22 03:32:00,
2013-01-21 20:42:00,61.0,14.0,-100.00,NW,315,0.0,0.0,16,0.00,,,0.00,,2013-01-22 03:42:00,
2013-01-21 20:52:00,60.0,15.0,-100.00,NNW,343,0.0,0.0,17,0.00,,,0.00,,2013-01-22 03:52:00,
2013-01-21 21:02:00,60.0,15.0,-100.00,North,349,0.0,0.0,17,0.00,,,0.00,,2013-01-22 04:02:00,
2013-01-21 21:11:00,60.0,15.0,-100.00,North,349,0.0,0.0,17,0.00,,,0.00,,2013-01-22 04:11:00,
2013-01-21 21:22:00,61.0,16.0,-100.00,NW,321,1.0,0.0,17,0.00,,,0.00,,2013-01-22 04:22:00,
2013-01-21 21:32:00,61.0,14.0,-100.00,NW,325,2.0,2.0,16,0.00,,,0.00,,2013-01-22 04:32:00,
2013-01-21 21:42:00,61.0,14.0,-100.00,NW,325,2.0,2.0,16,0.00,,,0.00,,2013-01-22 04:42:00,
2013-01-21 21:52:00,62.0,14.0,-100.00,North,356,3.0,3.0,15,0.00,,,0.00,,2013-01-22 04:52:00,
2013-01-21 22:02:00,63.0,15.0,-100.00,WSW,253,2.0,2.0,15,0.00,,,0.00,,2013-01-22 05:02:00,
2013-01-21 22:11:00,63.0,15.0,-100.00,WSW,253,2.0,2.0,15,0.00,,,0.00,,2013-01-22 05:11:00,
2013-01-21 22:22:00,61.0,14.0,-100.00,NW,314,3.0,4.0,16,0.00,,,0.00,,2013-01-22 05:22:00,
2013-01-21 22:32:00,60.0,14.0,-100.00,NW,316,0.0,0.0,16,0.00,,,0.00,,2013-01-22 05:32:00,
2013-01-21 22:42:00,60.0,14.0,-100.00,NW,316,0.0,0.0,16,0.00,,,0.00,,2013-01-22 05:42:00,
2013-01-21 22:52:00,60.0,15.0,-100.00,NW,311,2.0,2.0,17,0.00,,,0.00,,2013-01-22 05:52:00,
2013-01-21 23:02:00,58.0,13.0,-100.00,NW,309,0.0,0.0,17,0.00,,,0.00,,2013-01-22 06:02:00,
2013-01-21 23:11:00,58.0,13.0,-100.00,NW,309,0.0,0.0,17,0.00,,,0.00,,2013-01-22 06:11:00,
2013-01-21 23:22:00,57.0,15.0,-100.00,NW,309,0.0,0.0,19,0.00,,,0.00,,2013-01-22 06:22:00,
2013-01-21 23:32:00,56.0,16.0,-100.00,NW,315,0.0,0.0,20,0.00,,,0.00,,2013-01-22 06:32:00,
2013-01-21 23:42:00,56.0,16.0,-100.00,NW,315,0.0,0.0,20,0.00,,,0.00,,2013-01-22 06:42:00,
2013-01-21 23:52:00,55.0,16.0,-100.00,North,8,0.0,0.0,21,0.00,,,0.00,,2013-01-22 06:52:00,